AAL1843 KCLT-KBOS
Flight info
| Callsign | AAL1843 |
|---|---|
| Flight time | N/A |
| Altitude | 39000 |
| Route | BARMY5 RDU NOWAE Q87 GEARS BBOBO Q22 RBV Q419 JFK ROBUC3 |
| Aircraft | A320/M-SDE2E3FGHIRWXY/LB1 |
Departure
| Time | 2026-05-07 22:21 |
|---|---|
| Airport | Charlotte Douglas International Airport (KCLT) |
Arrival
| Time | N/A |
|---|---|
| Airport | Boston Logan International Airport (KBOS) |
| Time | Latitude | Longitude | Altitude | Speed | Heading |
|---|---|---|---|---|---|
| 2026-05-07 21:59 | 35.22118 | -80.94036 | 747 ft | 0 kts | 194° |
| 2026-05-07 22:09 | 35.22128 | -80.94033 | 744 ft | 2 kts | 194° |
| 2026-05-07 22:09 | 35.22142 | -80.94029 | 745 ft | 2 kts | 190° |
| 2026-05-07 22:09 | 35.22157 | -80.94028 | 746 ft | 2 kts | 161° |
| 2026-05-07 22:10 | 35.22169 | -80.94038 | 744 ft | 2 kts | 117° |
| 2026-05-07 22:10 | 35.22173 | -80.94056 | 745 ft | 2 kts | 78° |
| 2026-05-07 22:10 | 35.22173 | -80.94057 | 745 ft | 0 kts | 76° |
| 2026-05-07 22:13 | 35.22173 | -80.94055 | 745 ft | 1 kts | 75° |
| 2026-05-07 22:14 | 35.22179 | -80.94016 | 746 ft | 8 kts | 84° |
| 2026-05-07 22:14 | 35.22183 | -80.93935 | 749 ft | 11 kts | 86° |
| 2026-05-07 22:14 | 35.22190 | -80.93837 | 747 ft | 12 kts | 86° |
| 2026-05-07 22:14 | 35.22191 | -80.93813 | 749 ft | 0 kts | 86° |
| 2026-05-07 22:15 | 35.22192 | -80.93797 | 747 ft | 8 kts | 87° |
| 2026-05-07 22:15 | 35.22164 | -80.93725 | 750 ft | 10 kts | 182° |
| 2026-05-07 22:15 | 35.22076 | -80.93718 | 745 ft | 15 kts | 172° |
| 2026-05-07 22:15 | 35.21963 | -80.93706 | 744 ft | 18 kts | 176° |
| 2026-05-07 22:16 | 35.21829 | -80.93695 | 745 ft | 20 kts | 176° |
| 2026-05-07 22:16 | 35.21685 | -80.93683 | 744 ft | 22 kts | 177° |
| 2026-05-07 22:16 | 35.21528 | -80.93670 | 741 ft | 23 kts | 176° |
| 2026-05-07 22:16 | 35.21362 | -80.93656 | 741 ft | 25 kts | 176° |
| 2026-05-07 22:17 | 35.21183 | -80.93640 | 740 ft | 26 kts | 176° |
| 2026-05-07 22:17 | 35.20995 | -80.93624 | 740 ft | 28 kts | 175° |
| 2026-05-07 22:17 | 35.20798 | -80.93607 | 738 ft | 29 kts | 176° |
| 2026-05-07 22:17 | 35.20594 | -80.93588 | 736 ft | 30 kts | 175° |
| 2026-05-07 22:18 | 35.20395 | -80.93572 | 735 ft | 28 kts | 176° |
| 2026-05-07 22:18 | 35.20124 | -80.93540 | 732 ft | 10 kts | 150° |
| 2026-05-07 22:18 | 35.20116 | -80.93526 | 732 ft | 0 kts | 122° |
| 2026-05-07 22:19 | 35.20115 | -80.93524 | 732 ft | 2 kts | 121° |
| 2026-05-07 22:20 | 35.20108 | -80.93451 | 731 ft | 13 kts | 81° |
| 2026-05-07 22:20 | 35.20172 | -80.93421 | 732 ft | 12 kts | 355° |
| 2026-05-07 22:20 | 35.20339 | -80.93434 | 736 ft | 52 kts | 355° |
| 2026-05-07 22:20 | 35.20951 | -80.93489 | 739 ft | 120 kts | 357° |
| 2026-05-07 22:21 | 35.21966 | -80.93582 | 757 ft | 169 kts | 356° |
| 2026-05-07 22:21 | 35.23106 | -80.93682 | 1373 ft | 161 kts | 354° |
| 2026-05-07 22:21 | 35.24217 | -80.93425 | 2000 ft | 163 kts | 15° |
| 2026-05-07 22:21 | 35.25261 | -80.92915 | 2672 ft | 163 kts | 18° |
| 2026-05-07 22:22 | 35.26379 | -80.92381 | 3059 ft | 182 kts | 17° |
| 2026-05-07 22:22 | 35.27637 | -80.91812 | 3481 ft | 203 kts | 17° |
| 2026-05-07 22:22 | 35.29028 | -80.91183 | 3903 ft | 230 kts | 17° |
| 2026-05-07 22:22 | 35.30622 | -80.90466 | 4463 ft | 255 kts | 17° |
| 2026-05-07 22:23 | 35.32359 | -80.89667 | 5076 ft | 277 kts | 17° |
| 2026-05-07 22:23 | 35.34192 | -80.88810 | 5975 ft | 284 kts | 17° |
| 2026-05-07 22:23 | 35.36031 | -80.87944 | 6983 ft | 289 kts | 17° |
| 2026-05-07 22:23 | 35.37941 | -80.87038 | 7590 ft | 295 kts | 17° |
| 2026-05-07 22:24 | 35.39853 | -80.86098 | 7886 ft | 299 kts | 17° |
| 2026-05-07 22:24 | 35.41783 | -80.85141 | 8071 ft | 298 kts | 18° |
| 2026-05-07 22:24 | 35.43547 | -80.83715 | 8308 ft | 313 kts | 44° |
| 2026-05-07 22:24 | 35.44679 | -80.81404 | 9150 ft | 322 kts | 71° |
| 2026-05-07 22:25 | 35.44993 | -80.78702 | 10071 ft | 327 kts | 92° |
| 2026-05-07 22:25 | 35.44832 | -80.75850 | 10603 ft | 347 kts | 98° |
| 2026-05-07 22:25 | 35.44513 | -80.72803 | 10930 ft | 372 kts | 99° |
| 2026-05-07 22:25 | 35.44177 | -80.69582 | 11488 ft | 386 kts | 98° |
| 2026-05-07 22:26 | 35.43875 | -80.66284 | 12339 ft | 392 kts | 97° |
| 2026-05-07 22:26 | 35.43598 | -80.62907 | 13152 ft | 400 kts | 97° |
| 2026-05-07 22:26 | 35.43338 | -80.59509 | 13915 ft | 406 kts | 96° |
| 2026-05-07 22:26 | 35.43077 | -80.56022 | 14591 ft | 414 kts | 96° |
| 2026-05-07 22:27 | 35.42813 | -80.52473 | 15259 ft | 421 kts | 96° |
| 2026-05-07 22:27 | 35.42545 | -80.48896 | 15893 ft | 429 kts | 96° |
| 2026-05-07 22:27 | 35.42268 | -80.45215 | 16575 ft | 436 kts | 96° |
| 2026-05-07 22:27 | 35.41983 | -80.41461 | 17207 ft | 444 kts | 96° |
| 2026-05-07 22:28 | 35.41696 | -80.37709 | 17849 ft | 451 kts | 96° |
| 2026-05-07 22:28 | 35.41400 | -80.33852 | 18442 ft | 457 kts | 96° |
| 2026-05-07 22:28 | 35.41099 | -80.29946 | 19065 ft | 461 kts | 96° |
| 2026-05-07 22:28 | 35.40794 | -80.25992 | 19636 ft | 467 kts | 96° |
| 2026-05-07 22:29 | 35.40484 | -80.22004 | 20207 ft | 472 kts | 97° |
| 2026-05-07 22:29 | 35.40174 | -80.18027 | 20764 ft | 477 kts | 97° |
| 2026-05-07 22:29 | 35.39855 | -80.13949 | 21339 ft | 482 kts | 97° |
| 2026-05-07 22:29 | 35.39530 | -80.09819 | 21891 ft | 487 kts | 97° |
| 2026-05-07 22:30 | 35.39203 | -80.05699 | 22420 ft | 493 kts | 97° |
| 2026-05-07 22:30 | 35.38868 | -80.01492 | 22987 ft | 497 kts | 97° |
| 2026-05-07 22:30 | 35.38529 | -79.97253 | 23515 ft | 502 kts | 97° |
| 2026-05-07 22:30 | 35.38185 | -79.92960 | 23953 ft | 507 kts | 97° |
| 2026-05-07 22:31 | 35.37856 | -79.88694 | 24423 ft | 510 kts | 94° |
| 2026-05-07 22:31 | 35.37964 | -79.84281 | 24898 ft | 513 kts | 81° |
| 2026-05-07 22:31 | 35.38597 | -79.80517 | 25309 ft | 513 kts | 70° |
| 2026-05-07 22:31 | 35.39768 | -79.76375 | 25760 ft | 515 kts | 66° |
| 2026-05-07 22:32 | 35.40990 | -79.72209 | 26218 ft | 519 kts | 67° |
| 2026-05-07 22:32 | 35.42182 | -79.68065 | 26672 ft | 522 kts | 66° |
| 2026-05-07 22:32 | 35.43601 | -79.63986 | 27111 ft | 520 kts | 57° |
| 2026-05-07 22:32 | 35.45417 | -79.60137 | 27532 ft | 521 kts | 53° |
| 2026-05-07 22:33 | 35.47276 | -79.56359 | 27946 ft | 523 kts | 53° |
| 2026-05-07 22:33 | 35.49213 | -79.52522 | 28375 ft | 525 kts | 52° |
| 2026-05-07 22:33 | 35.51109 | -79.48824 | 28776 ft | 528 kts | 52° |
| 2026-05-07 22:33 | 35.53088 | -79.44995 | 29153 ft | 531 kts | 52° |
| 2026-05-07 22:34 | 35.55075 | -79.41155 | 29530 ft | 534 kts | 52° |
| 2026-05-07 22:34 | 35.57073 | -79.37294 | 29915 ft | 536 kts | 52° |
| 2026-05-07 22:34 | 35.59075 | -79.33418 | 30268 ft | 539 kts | 52° |
| 2026-05-07 22:34 | 35.61088 | -79.29515 | 30563 ft | 542 kts | 52° |
| 2026-05-07 22:35 | 35.63110 | -79.25590 | 30872 ft | 545 kts | 52° |
| 2026-05-07 22:35 | 35.65094 | -79.21734 | 31234 ft | 546 kts | 52° |